createdAt,value
2017-06-26T00:00:09.686Z,1.03
2017-06-26T00:02:38.010Z,1.27
2017-06-26T00:05:06.302Z,1.30
2017-06-26T00:07:34.620Z,1.03
2017-06-26T00:10:02.935Z,1.27
2017-06-26T00:12:31.226Z,1.00
2017-06-26T00:14:59.554Z,1.10
2017-06-26T00:17:27.842Z,1.43
2017-06-26T00:19:56.136Z,1.40
2017-06-26T00:22:24.566Z,1.30
2017-06-26T00:24:53.711Z,1.03
2017-06-26T00:27:22.038Z,1.30
2017-06-26T00:29:51.197Z,1.20
2017-06-26T00:32:19.582Z,0.80
2017-06-26T00:34:47.881Z,1.33
2017-06-26T00:37:16.164Z,1.20
2017-06-26T00:39:44.472Z,1.33
2017-06-26T00:42:12.769Z,0.97
2017-06-26T00:44:41.161Z,1.40
2017-06-26T00:47:10.230Z,1.30
2017-06-26T00:49:38.562Z,1.20
2017-06-26T00:52:06.865Z,1.07
2017-06-26T00:54:35.193Z,1.50
2017-06-26T00:57:04.253Z,0.83
2017-06-26T00:59:32.573Z,1.10
2017-06-26T01:02:00.933Z,1.60
2017-06-26T01:04:30.050Z,1.30
2017-06-26T01:06:58.369Z,1.00
2017-06-26T01:09:26.653Z,1.20
2017-06-26T01:11:54.974Z,1.10
2017-06-26T01:14:24.062Z,1.37
2017-06-26T01:16:53.121Z,1.40
2017-06-26T01:19:21.472Z,1.53
2017-06-26T01:21:49.755Z,1.10
2017-06-26T01:24:18.040Z,1.13
2017-06-26T01:26:46.421Z,1.10
2017-06-26T01:29:14.762Z,1.57
2017-06-26T01:31:43.057Z,1.10
2017-06-26T01:34:11.442Z,1.37
2017-06-26T01:36:39.729Z,1.20
2017-06-26T01:39:08.095Z,1.10
2017-06-26T01:41:36.463Z,1.20
2017-06-26T01:44:04.753Z,1.30
2017-06-26T01:46:33.037Z,1.03
2017-06-26T01:49:01.368Z,1.23
2017-06-26T01:51:30.420Z,1.10
2017-06-26T01:53:58.709Z,1.00
2017-06-26T01:56:27.065Z,0.87
2017-06-26T01:58:55.353Z,1.40
2017-06-26T02:01:24.413Z,0.90
2017-06-26T02:03:52.736Z,1.27
2017-06-26T02:06:21.022Z,0.90
2017-06-26T02:08:49.321Z,1.33
2017-06-26T02:11:17.640Z,1.10
2017-06-26T02:13:45.924Z,1.40
2017-06-26T02:16:15.017Z,1.10
2017-06-26T02:18:44.072Z,1.10
2017-06-26T02:21:12.369Z,1.47
2017-06-26T02:23:40.703Z,1.33
2017-06-26T02:26:08.990Z,1.17
2017-06-26T02:28:37.273Z,1.07
2017-06-26T02:31:05.593Z,1.33
2017-06-26T02:33:33.884Z,1.20
2017-06-26T02:36:02.945Z,1.70
2017-06-26T02:38:31.261Z,1.67
2017-06-26T02:41:00.353Z,1.30
2017-06-26T02:43:29.400Z,1.20
2017-06-26T02:45:57.690Z,1.20
2017-06-26T02:48:26.128Z,1.20
2017-06-26T02:50:54.416Z,1.70
2017-06-26T02:53:22.705Z,1.30
2017-06-26T02:55:51.104Z,1.10
2017-06-26T02:58:19.632Z,1.90
2017-06-26T03:00:47.945Z,1.37
2017-06-26T03:03:16.296Z,1.60
2017-06-26T03:05:44.582Z,1.17
2017-06-26T03:08:12.898Z,1.60
2017-06-26T03:10:41.233Z,1.40
2017-06-26T03:13:09.522Z,1.20
2017-06-26T03:15:37.811Z,1.80
2017-06-26T03:18:06.150Z,1.33
2017-06-26T03:20:35.301Z,1.67
2017-06-26T03:23:03.587Z,1.63
2017-06-26T03:25:31.952Z,1.63
2017-06-26T03:28:00.240Z,1.47
2017-06-26T03:30:28.538Z,2.03
2017-06-26T03:32:56.864Z,1.50
2017-06-26T03:35:25.144Z,1.70
2017-06-26T03:37:53.424Z,1.90
2017-06-26T03:40:22.518Z,2.00
2017-06-26T03:42:50.801Z,2.03
2017-06-26T03:45:19.857Z,2.33
2017-06-26T03:47:48.189Z,1.73
2017-06-26T03:50:16.482Z,1.63
2017-06-26T03:52:44.781Z,1.20
2017-06-26T03:55:13.094Z,1.60
2017-06-26T03:57:41.376Z,1.60
2017-06-26T04:00:09.709Z,1.77
2017-06-26T04:02:37.990Z,2.20
2017-06-26T04:05:06.278Z,1.30
2017-06-26T04:07:34.645Z,1.40
2017-06-26T04:10:02.930Z,1.50
2017-06-26T04:12:31.236Z,1.80
2017-06-26T04:14:59.569Z,1.63
2017-06-26T04:17:27.857Z,1.60
2017-06-26T04:19:56.149Z,1.50
2017-06-26T04:22:24.486Z,1.80
2017-06-26T04:24:52.801Z,1.63
2017-06-26T04:27:21.102Z,2.60
2017-06-26T04:29:49.426Z,1.77
2017-06-26T04:32:17.713Z,1.60
2017-06-26T04:34:46.029Z,1.50
2017-06-26T04:37:14.408Z,1.60
2017-06-26T04:39:42.699Z,1.60
2017-06-26T04:42:11.748Z,1.77
2017-06-26T04:44:40.077Z,1.90
2017-06-26T04:47:09.153Z,1.43
2017-06-26T04:49:37.446Z,1.50
2017-06-26T04:52:06.539Z,1.50
2017-06-26T04:54:34.879Z,1.33
2017-06-26T04:57:03.189Z,1.47
2017-06-26T04:59:31.472Z,1.20
2017-06-26T05:01:59.793Z,1.70
2017-06-26T05:04:28.128Z,1.57
2017-06-26T05:06:56.445Z,1.83
2017-06-26T05:09:24.756Z,1.90
2017-06-26T05:11:53.044Z,1.77
2017-06-26T05:14:21.378Z,1.73
2017-06-26T05:16:49.676Z,1.87
2017-06-26T05:19:18.009Z,2.70
2017-06-26T05:21:46.314Z,1.70
2017-06-26T05:24:14.606Z,1.80
2017-06-26T05:26:42.931Z,1.90
2017-06-26T05:29:11.981Z,1.80
2017-06-26T05:31:40.266Z,1.90
2017-06-26T05:34:08.585Z,1.97
2017-06-26T05:36:37.684Z,2.00
2017-06-26T05:39:06.737Z,1.60
2017-06-26T05:41:35.836Z,1.53
2017-06-26T05:44:04.890Z,2.03
2017-06-26T05:46:33.184Z,1.43
2017-06-26T05:49:01.518Z,1.53
2017-06-26T05:51:30.573Z,1.40
2017-06-26T05:53:58.894Z,1.40
2017-06-26T05:56:28.050Z,1.20
2017-06-26T05:58:56.380Z,1.73
2017-06-26T06:01:25.454Z,1.33
2017-06-26T06:03:54.617Z,1.40
2017-06-26T06:06:22.932Z,1.40
2017-06-26T06:08:51.301Z,1.40
2017-06-26T06:11:19.584Z,1.37
2017-06-26T06:13:47.877Z,1.57
2017-06-26T06:16:16.963Z,1.20
2017-06-26T06:18:46.017Z,1.13
2017-06-26T06:21:14.366Z,0.90
2017-06-26T06:23:43.484Z,0.80
2017-06-26T06:26:11.774Z,0.90
2017-06-26T06:28:40.061Z,0.80
2017-06-26T06:31:08.405Z,0.83
2017-06-26T06:33:36.721Z,0.77
2017-06-26T06:36:05.010Z,1.10
2017-06-26T06:38:34.109Z,0.70
2017-06-26T06:41:02.448Z,0.80
2017-06-26T06:43:30.728Z,0.80
2017-06-26T06:45:59.053Z,1.37
2017-06-26T06:48:28.107Z,0.63
2017-06-26T06:50:56.428Z,0.73
2017-06-26T06:53:24.766Z,0.80
2017-06-26T06:55:53.061Z,0.67
2017-06-26T06:58:21.430Z,0.80
2017-06-26T07:00:49.713Z,0.60
2017-06-26T07:03:18.078Z,1.00
2017-06-26T07:05:46.400Z,1.07
2017-06-26T07:08:14.692Z,0.70
2017-06-26T07:10:43.019Z,1.23
2017-06-26T07:13:11.306Z,1.03
2017-06-26T07:15:39.589Z,1.00
2017-06-26T07:18:08.669Z,0.70
2017-06-26T07:20:37.781Z,0.70
2017-06-26T07:23:06.849Z,0.80
2017-06-26T07:25:35.174Z,0.80
2017-06-26T07:28:03.468Z,1.00
2017-06-26T07:30:31.798Z,0.70
2017-06-26T07:33:00.091Z,0.83
2017-06-26T07:35:28.416Z,0.63
2017-06-26T07:37:56.705Z,0.97
2017-06-26T07:40:24.996Z,0.60
2017-06-26T07:42:53.313Z,0.70
2017-06-26T07:45:21.609Z,1.33
2017-06-26T07:47:49.925Z,0.90
2017-06-26T07:50:18.261Z,0.60
2017-06-26T07:52:46.565Z,0.70
2017-06-26T07:55:14.857Z,0.63
2017-06-26T07:57:43.202Z,1.00
2017-06-26T08:00:11.492Z,1.30
2017-06-26T08:02:39.782Z,0.90
2017-06-26T08:05:08.121Z,0.73
2017-06-26T08:07:36.445Z,0.80
2017-06-26T08:10:04.761Z,1.10
2017-06-26T08:12:33.094Z,1.80
2017-06-26T08:15:02.532Z,2.23
2017-06-26T08:17:31.700Z,1.17
2017-06-26T08:20:00.067Z,0.60
2017-06-26T08:22:28.354Z,1.20
2017-06-26T08:24:56.724Z,0.77
2017-06-26T08:27:25.009Z,0.90
2017-06-26T08:29:53.301Z,0.87
2017-06-26T08:32:21.836Z,1.27
2017-06-26T08:34:50.129Z,0.60
2017-06-26T08:37:18.439Z,0.47
2017-06-26T08:39:46.772Z,0.70
2017-06-26T08:42:15.065Z,0.93
2017-06-26T08:44:43.351Z,0.67
2017-06-26T08:47:11.673Z,0.50
2017-06-26T08:49:39.971Z,0.63
2017-06-26T08:52:08.252Z,0.70
2017-06-26T08:54:36.577Z,0.70
2017-06-26T08:57:04.868Z,19.83
2017-06-26T08:59:33.966Z,1.20
2017-06-26T09:02:02.257Z,0.90
2017-06-26T09:04:30.555Z,0.60
2017-06-26T09:06:58.889Z,0.70
2017-06-26T09:09:27.184Z,0.60
2017-06-26T09:11:56.246Z,0.60
2017-06-26T09:14:24.588Z,1.67
2017-06-26T09:16:52.870Z,0.40
2017-06-26T09:19:21.152Z,0.43
2017-06-26T09:21:49.479Z,0.50
2017-06-26T09:24:17.771Z,0.60
2017-06-26T09:26:46.829Z,0.47
2017-06-26T09:29:15.161Z,0.50
2017-06-26T09:31:43.453Z,0.70
2017-06-26T09:34:12.507Z,0.90
2017-06-26T09:36:40.839Z,0.53
2017-06-26T09:39:09.166Z,0.60
2017-06-26T09:41:37.455Z,0.70
2017-06-26T09:44:05.821Z,0.83
2017-06-26T09:46:34.104Z,0.70
2017-06-26T09:49:02.392Z,0.50
2017-06-26T09:51:30.735Z,0.90
2017-06-26T09:53:59.025Z,0.87
2017-06-26T09:56:27.321Z,0.70
2017-06-26T09:58:55.661Z,0.70
2017-06-26T10:01:23.953Z,0.67
2017-06-26T10:03:52.241Z,0.60
2017-06-26T10:06:20.557Z,0.80
2017-06-26T10:08:49.617Z,0.60
2017-06-26T10:11:17.941Z,0.70
2017-06-26T10:13:46.281Z,0.80
2017-06-26T10:16:14.568Z,0.70
2017-06-26T10:18:42.863Z,1.00
2017-06-26T10:21:11.956Z,0.70
2017-06-26T10:23:41.015Z,0.50
2017-06-26T10:26:09.317Z,0.60
2017-06-26T10:28:37.646Z,0.60
2017-06-26T10:31:05.936Z,1.00
2017-06-26T10:33:34.259Z,0.70
2017-06-26T10:36:03.388Z,0.63
2017-06-26T10:38:31.677Z,0.80
2017-06-26T10:40:59.977Z,0.63
2017-06-26T10:43:28.322Z,1.00
2017-06-26T10:45:56.628Z,0.60
2017-06-26T10:48:24.925Z,0.70
2017-06-26T10:50:53.264Z,0.73
2017-06-26T10:53:21.561Z,0.60
2017-06-26T10:55:49.960Z,0.70
2017-06-26T10:58:18.285Z,0.60
2017-06-26T11:00:46.584Z,0.70
2017-06-26T11:03:14.879Z,0.70
2017-06-26T11:05:43.508Z,0.80
2017-06-26T11:08:12.572Z,0.90
2017-06-26T11:10:40.870Z,1.03
2017-06-26T11:13:09.997Z,0.90
2017-06-26T11:15:38.281Z,0.70
2017-06-26T11:18:06.573Z,3.03
2017-06-26T11:20:34.918Z,0.70
2017-06-26T11:23:03.227Z,0.70
2017-06-26T11:25:31.517Z,0.63
2017-06-26T11:27:59.844Z,1.00
2017-06-26T11:30:28.137Z,0.70
2017-06-26T11:32:56.565Z,1.00
2017-06-26T11:35:24.920Z,1.00
2017-06-26T11:37:53.209Z,0.83
2017-06-26T11:40:21.538Z,0.87
2017-06-26T11:42:49.826Z,1.00
2017-06-26T11:45:18.138Z,0.70
2017-06-26T11:47:46.465Z,1.00
2017-06-26T11:50:14.785Z,0.80
2017-06-26T11:52:43.153Z,0.90
2017-06-26T11:55:11.439Z,0.80
2017-06-26T11:57:39.727Z,0.87
2017-06-26T12:00:08.048Z,0.80
2017-06-26T12:02:37.100Z,0.90
2017-06-26T12:05:05.412Z,1.00
2017-06-26T12:07:33.698Z,0.70
2017-06-26T12:10:02.038Z,0.97
2017-06-26T12:12:30.336Z,1.10
2017-06-26T12:14:58.625Z,1.33
2017-06-26T12:17:27.721Z,0.80
2017-06-26T12:19:56.778Z,0.80
2017-06-26T12:22:25.313Z,0.90
2017-06-26T12:24:53.607Z,1.00
2017-06-26T12:27:21.924Z,1.00
2017-06-26T12:29:50.262Z,1.17
2017-06-26T12:32:18.553Z,1.23
2017-06-26T12:34:46.853Z,1.00
2017-06-26T12:37:15.188Z,1.10
2017-06-26T12:39:43.480Z,1.10
2017-06-26T12:42:11.777Z,1.40
2017-06-26T12:44:40.100Z,1.10
2017-06-26T12:47:08.421Z,1.00
2017-06-26T12:49:36.709Z,0.90
2017-06-26T12:52:05.032Z,0.97
2017-06-26T12:54:33.313Z,1.33
2017-06-26T12:57:01.611Z,1.20
2017-06-26T12:59:29.956Z,0.93
2017-06-26T13:01:58.241Z,1.27
2017-06-26T13:04:26.532Z,1.20
2017-06-26T13:06:54.864Z,1.00
2017-06-26T13:09:23.154Z,1.03
2017-06-26T13:11:53.069Z,1.20
2017-06-26T13:14:21.360Z,1.00
2017-06-26T13:16:50.416Z,0.80
2017-06-26T13:19:19.510Z,1.23
2017-06-26T13:21:48.565Z,1.50
2017-06-26T13:24:16.884Z,1.10
2017-06-26T13:26:45.953Z,1.20
2017-06-26T13:29:14.281Z,1.20
2017-06-26T13:31:42.613Z,1.20
2017-06-26T13:34:10.908Z,1.10
2017-06-26T13:36:39.969Z,1.00
2017-06-26T13:39:08.282Z,0.80
2017-06-26T13:41:37.336Z,1.10
2017-06-26T13:44:05.697Z,1.37
2017-06-26T13:46:34.025Z,1.40
2017-06-26T13:49:02.343Z,1.20
2017-06-26T13:51:30.637Z,1.00
2017-06-26T13:53:58.962Z,1.10
2017-06-26T13:56:28.055Z,1.13
2017-06-26T13:58:57.110Z,1.10
2017-06-26T14:01:25.400Z,1.20
2017-06-26T14:03:53.753Z,1.43
2017-06-26T14:06:22.128Z,1.00
2017-06-26T14:08:50.458Z,1.40
2017-06-26T14:11:18.773Z,1.23
2017-06-26T14:13:47.065Z,1.33
2017-06-26T14:16:15.391Z,1.10
2017-06-26T14:18:43.676Z,0.90
2017-06-26T14:21:12.768Z,1.17
2017-06-26T14:23:41.821Z,1.20
2017-06-26T14:26:10.228Z,1.47
2017-06-26T14:28:38.553Z,1.23
2017-06-26T14:31:06.842Z,1.30
2017-06-26T14:33:35.132Z,1.30
2017-06-26T14:36:03.452Z,1.00
2017-06-26T14:38:32.506Z,1.20
2017-06-26T14:41:00.792Z,1.20
2017-06-26T14:43:29.118Z,1.33
2017-06-26T14:45:58.183Z,1.30
2017-06-26T14:48:26.626Z,1.43
2017-06-26T14:50:54.963Z,1.60
2017-06-26T14:53:24.018Z,1.53
2017-06-26T14:55:52.318Z,1.57
2017-06-26T14:58:20.650Z,1.40
2017-06-26T15:00:48.949Z,1.20
2017-06-26T15:03:17.240Z,1.27
2017-06-26T15:05:45.554Z,1.20
2017-06-26T15:08:14.632Z,1.33
2017-06-26T15:10:42.981Z,1.73
2017-06-26T15:13:11.269Z,1.00
2017-06-26T15:15:39.614Z,1.33
2017-06-26T15:18:07.897Z,1.47
2017-06-26T15:20:36.228Z,1.50
2017-06-26T15:23:05.281Z,1.27
2017-06-26T15:25:33.569Z,1.60
2017-06-26T15:28:01.898Z,1.50
2017-06-26T15:30:30.195Z,1.63
2017-06-26T15:32:58.479Z,1.50
2017-06-26T15:35:26.797Z,1.83
2017-06-26T15:37:55.121Z,1.40
2017-06-26T15:40:23.411Z,1.40
2017-06-26T15:42:51.700Z,1.73
2017-06-26T15:45:20.030Z,1.23
2017-06-26T15:47:49.089Z,1.50
2017-06-26T15:50:17.384Z,1.70
2017-06-26T15:52:46.477Z,1.77
2017-06-26T15:55:14.756Z,1.77
2017-06-26T15:57:43.816Z,1.90
2017-06-26T16:00:12.128Z,1.47
2017-06-26T16:02:41.181Z,1.67
2017-06-26T16:05:09.514Z,1.80
2017-06-26T16:07:38.570Z,2.00
2017-06-26T16:10:06.857Z,1.90
2017-06-26T16:12:35.182Z,1.80
2017-06-26T16:15:03.481Z,2.40
2017-06-26T16:17:31.784Z,2.40
2017-06-26T16:20:00.141Z,2.43
2017-06-26T16:22:28.523Z,2.00
2017-06-26T16:24:56.817Z,2.30
2017-06-26T16:27:25.141Z,2.40
2017-06-26T16:29:53.433Z,2.40
2017-06-26T16:32:21.716Z,2.77
2017-06-26T16:34:50.036Z,3.60
2017-06-26T16:37:18.318Z,2.97
2017-06-26T16:39:46.633Z,3.30
2017-06-26T16:42:14.965Z,2.57
2017-06-26T16:44:43.262Z,2.70
2017-06-26T16:47:12.318Z,2.70
2017-06-26T16:49:40.637Z,3.40
2017-06-26T16:52:09.697Z,3.07
2017-06-26T16:54:38.036Z,3.17
2017-06-26T16:57:06.317Z,2.87
2017-06-26T16:59:34.606Z,2.47
2017-06-26T17:02:02.940Z,2.53
2017-06-26T17:04:31.993Z,2.80
2017-06-26T17:07:00.276Z,2.30
2017-06-26T17:09:28.605Z,3.30
2017-06-26T17:11:56.935Z,2.90
2017-06-26T17:14:25.224Z,3.33
2017-06-26T17:16:53.535Z,3.07
2017-06-26T17:19:21.898Z,2.87
2017-06-26T17:21:50.187Z,3.20
2017-06-26T17:24:18.475Z,3.20
2017-06-26T17:26:46.784Z,2.87
2017-06-26T17:29:15.841Z,2.80
2017-06-26T17:31:44.173Z,2.70
2017-06-26T17:34:12.467Z,3.00
2017-06-26T17:36:40.757Z,3.43
2017-06-26T17:39:09.122Z,3.33
2017-06-26T17:41:37.441Z,3.07
2017-06-26T17:44:05.729Z,3.90
2017-06-26T17:46:34.062Z,3.47
2017-06-26T17:49:02.356Z,3.43
2017-06-26T17:51:30.655Z,3.20
2017-06-26T17:53:59.766Z,2.20
2017-06-26T17:56:28.301Z,3.70
2017-06-26T17:58:56.593Z,3.87
2017-06-26T18:01:24.923Z,3.50
2017-06-26T18:03:53.228Z,3.30
2017-06-26T18:06:21.521Z,2.97
2017-06-26T18:08:49.896Z,3.10
2017-06-26T18:11:18.953Z,3.27
2017-06-26T18:13:47.377Z,3.47
2017-06-26T18:16:15.704Z,3.17
2017-06-26T18:18:43.996Z,4.00
2017-06-26T18:21:12.295Z,3.83
2017-06-26T18:23:40.616Z,3.63
2017-06-26T18:26:08.913Z,4.17
2017-06-26T18:28:37.979Z,4.13
2017-06-26T18:31:06.314Z,4.40
2017-06-26T18:33:34.609Z,8.57
2017-06-26T18:36:02.901Z,7.17
2017-06-26T18:38:31.229Z,5.10
2017-06-26T18:41:00.276Z,4.40
2017-06-26T18:43:28.565Z,4.93
2017-06-26T18:45:56.901Z,4.80
2017-06-26T18:48:25.194Z,5.23
2017-06-26T18:50:53.496Z,4.80
2017-06-26T18:53:21.828Z,4.93
2017-06-26T18:55:50.118Z,4.70
2017-06-26T18:58:18.415Z,4.43
2017-06-26T19:00:46.734Z,4.80
2017-06-26T19:03:15.794Z,5.00
2017-06-26T19:05:44.077Z,5.13
2017-06-26T19:08:12.404Z,4.57
2017-06-26T19:10:40.698Z,5.40
2017-06-26T19:13:08.994Z,5.00
2017-06-26T19:15:37.333Z,5.90
2017-06-26T19:18:05.618Z,5.30
2017-06-26T19:20:33.918Z,5.60
2017-06-26T19:23:03.035Z,4.97
2017-06-26T19:25:31.327Z,4.63
2017-06-26T19:27:59.622Z,5.93
2017-06-26T19:30:27.952Z,5.80
2017-06-26T19:32:56.258Z,6.30
2017-06-26T19:35:24.590Z,5.13
2017-06-26T19:37:52.906Z,5.73
2017-06-26T19:40:21.195Z,5.33
2017-06-26T19:42:49.534Z,6.30
2017-06-26T19:45:17.839Z,5.40
2017-06-26T19:47:46.135Z,5.07
2017-06-26T19:50:14.458Z,5.00
2017-06-26T19:52:42.752Z,5.60
2017-06-26T19:55:11.056Z,8.03
2017-06-26T19:57:39.425Z,12.13
2017-06-26T20:00:07.717Z,6.60
2017-06-26T20:02:36.045Z,5.70
2017-06-26T20:05:04.366Z,5.20
2017-06-26T20:07:32.670Z,5.90
2017-06-26T20:10:00.958Z,4.93
2017-06-26T20:12:29.281Z,5.77
2017-06-26T20:14:57.570Z,5.30
2017-06-26T20:17:25.931Z,8.20
2017-06-26T20:19:55.023Z,6.00
2017-06-26T20:22:24.109Z,4.87
2017-06-26T20:24:52.401Z,6.23
2017-06-26T20:27:21.493Z,6.17
2017-06-26T20:29:49.780Z,5.70
2017-06-26T20:32:18.852Z,6.07
2017-06-26T20:34:47.190Z,6.50
2017-06-26T20:37:15.490Z,5.50
2017-06-26T20:39:43.781Z,5.23
2017-06-26T20:42:12.109Z,4.90
2017-06-26T20:44:40.389Z,6.30
2017-06-26T20:47:08.677Z,6.10
2017-06-26T20:49:37.010Z,4.67
2017-06-26T20:52:06.065Z,5.33
2017-06-26T20:54:34.354Z,5.40
2017-06-26T20:57:02.689Z,4.87
2017-06-26T20:59:31.000Z,5.40
2017-06-26T21:01:59.285Z,6.17
2017-06-26T21:04:27.608Z,5.80
2017-06-26T21:06:55.921Z,5.23
2017-06-26T21:09:24.222Z,5.80
2017-06-26T21:11:52.550Z,5.07
2017-06-26T21:14:20.834Z,5.40
2017-06-26T21:16:49.127Z,5.03
2017-06-26T21:19:18.228Z,5.83
2017-06-26T21:21:47.279Z,4.97
2017-06-26T21:24:15.573Z,5.97
2017-06-26T21:26:43.902Z,5.43
2017-06-26T21:29:12.196Z,6.30
2017-06-26T21:31:40.484Z,8.03
2017-06-26T21:34:09.580Z,6.63
2017-06-26T21:36:38.636Z,5.20
2017-06-26T21:39:06.929Z,6.03
2017-06-26T21:41:35.246Z,5.87
2017-06-26T21:44:03.540Z,6.40
2017-06-26T21:46:32.057Z,6.10
2017-06-26T21:49:00.353Z,6.70
2017-06-26T21:51:29.416Z,6.47
2017-06-26T21:53:57.764Z,6.20
2017-06-26T21:56:26.050Z,6.70
2017-06-26T21:58:54.351Z,7.00
2017-06-26T22:01:22.668Z,5.60
2017-06-26T22:03:51.733Z,6.20
2017-06-26T22:06:20.054Z,5.60
2017-06-26T22:08:49.114Z,5.47
2017-06-26T22:11:17.408Z,6.20
2017-06-26T22:13:45.745Z,5.80
2017-06-26T22:16:14.034Z,5.70
2017-06-26T22:18:42.317Z,5.23
2017-06-26T22:21:10.658Z,5.87
2017-06-26T22:23:38.977Z,6.70
2017-06-26T22:26:07.266Z,6.40
2017-06-26T22:28:35.580Z,5.90
2017-06-26T22:31:03.917Z,5.70
2017-06-26T22:33:32.207Z,6.47
2017-06-26T22:36:01.269Z,6.37
2017-06-26T22:38:29.605Z,5.83
2017-06-26T22:40:57.899Z,5.50
2017-06-26T22:43:26.212Z,5.83
2017-06-26T22:45:54.537Z,6.03
2017-06-26T22:48:22.850Z,7.70
2017-06-26T22:50:51.133Z,7.23
2017-06-26T22:53:19.523Z,6.60
2017-06-26T22:55:47.813Z,6.73
2017-06-26T22:58:16.096Z,7.20
2017-06-26T23:00:44.428Z,6.50
2017-06-26T23:03:12.708Z,6.90
2017-06-26T23:05:40.994Z,6.60
2017-06-26T23:08:09.317Z,6.30
2017-06-26T23:10:38.369Z,8.60
2017-06-26T23:13:06.653Z,7.23
2017-06-26T23:15:34.984Z,6.80
2017-06-26T23:18:03.277Z,6.67
2017-06-26T23:20:31.642Z,6.00
2017-06-26T23:22:59.961Z,7.17
2017-06-26T23:25:28.250Z,6.57
2017-06-26T23:27:56.576Z,6.13
2017-06-26T23:30:24.864Z,7.13
2017-06-26T23:32:53.181Z,8.57
2017-06-26T23:35:21.496Z,7.17
2017-06-26T23:37:50.625Z,7.10
2017-06-26T23:40:18.912Z,7.10
2017-06-26T23:42:47.205Z,7.70
2017-06-26T23:45:15.526Z,7.40
2017-06-26T23:47:43.822Z,6.87
2017-06-26T23:50:12.105Z,6.97
2017-06-26T23:52:40.421Z,7.80
2017-06-26T23:55:08.792Z,5.93
2017-06-26T23:57:37.085Z,6.70
